sensor_id;sensor_type;location;lat;lon;timestamp;P1;durP1;ratioP1;P2;durP2;ratioP2
69822;SDS011;57119;52.516;13.508;2023-02-15T00:01:51;32.67;;;13.43;;
69822;SDS011;57119;52.516;13.508;2023-02-15T00:04:19;32.30;;;14.35;;
69822;SDS011;57119;52.516;13.508;2023-02-15T00:06:47;39.07;;;13.83;;
69822;SDS011;57119;52.516;13.508;2023-02-15T00:09:13;37.97;;;14.85;;
69822;SDS011;57119;52.516;13.508;2023-02-15T00:11:39;34.33;;;14.10;;
69822;SDS011;57119;52.516;13.508;2023-02-15T00:14:09;36.13;;;13.83;;
69822;SDS011;57119;52.516;13.508;2023-02-15T00:16:37;33.08;;;13.85;;
69822;SDS011;57119;52.516;13.508;2023-02-15T00:19:04;36.13;;;13.93;;
69822;SDS011;57119;52.516;13.508;2023-02-15T00:21:31;35.92;;;14.15;;
69822;SDS011;57119;52.516;13.508;2023-02-15T00:23:58;36.90;;;14.68;;
69822;SDS011;57119;52.516;13.508;2023-02-15T00:26:28;36.90;;;13.80;;
69822;SDS011;57119;52.516;13.508;2023-02-15T00:28:53;38.15;;;13.45;;
69822;SDS011;57119;52.516;13.508;2023-02-15T00:31:20;35.80;;;13.98;;
69822;SDS011;57119;52.516;13.508;2023-02-15T00:33:45;32.67;;;13.18;;
69822;SDS011;57119;52.516;13.508;2023-02-15T00:36:11;37.17;;;13.73;;
69822;SDS011;57119;52.516;13.508;2023-02-15T00:38:37;35.50;;;14.13;;
69822;SDS011;57119;52.516;13.508;2023-02-15T00:41:03;41.30;;;15.40;;
69822;SDS011;57119;52.516;13.508;2023-02-15T00:43:30;38.10;;;15.38;;
69822;SDS011;57119;52.516;13.508;2023-02-15T00:45:56;39.90;;;14.25;;
69822;SDS011;57119;52.516;13.508;2023-02-15T00:48:22;42.25;;;15.07;;
69822;SDS011;57119;52.516;13.508;2023-02-15T00:50:49;36.88;;;13.95;;
69822;SDS011;57119;52.516;13.508;2023-02-15T00:53:16;39.47;;;15.13;;
69822;SDS011;57119;52.516;13.508;2023-02-15T00:55:41;38.20;;;13.33;;
69822;SDS011;57119;52.516;13.508;2023-02-15T00:58:07;40.53;;;13.93;;
69822;SDS011;57119;52.516;13.508;2023-02-15T01:00:33;40.20;;;14.50;;
69822;SDS011;57119;52.516;13.508;2023-02-15T01:02:58;39.33;;;14.33;;
69822;SDS011;57119;52.516;13.508;2023-02-15T01:05:24;39.27;;;13.90;;
69822;SDS011;57119;52.516;13.508;2023-02-15T01:07:49;37.78;;;14.55;;
69822;SDS011;57119;52.516;13.508;2023-02-15T01:10:15;36.83;;;14.10;;
69822;SDS011;57119;52.516;13.508;2023-02-15T01:12:40;34.45;;;14.55;;
69822;SDS011;57119;52.516;13.508;2023-02-15T01:15:06;39.40;;;14.10;;
69822;SDS011;57119;52.516;13.508;2023-02-15T01:17:32;41.70;;;14.73;;
69822;SDS011;57119;52.516;13.508;2023-02-15T01:19:57;39.50;;;14.60;;
69822;SDS011;57119;52.516;13.508;2023-02-15T01:22:22;42.80;;;15.83;;
69822;SDS011;57119;52.516;13.508;2023-02-15T01:24:51;40.43;;;15.33;;
69822;SDS011;57119;52.516;13.508;2023-02-15T01:27:17;39.95;;;15.55;;
69822;SDS011;57119;52.516;13.508;2023-02-15T01:29:43;39.93;;;15.43;;
69822;SDS011;57119;52.516;13.508;2023-02-15T01:32:08;41.22;;;15.45;;
69822;SDS011;57119;52.516;13.508;2023-02-15T01:34:34;42.47;;;14.93;;
69822;SDS011;57119;52.516;13.508;2023-02-15T01:36:59;45.30;;;16.33;;
69822;SDS011;57119;52.516;13.508;2023-02-15T01:39:25;41.60;;;15.88;;
69822;SDS011;57119;52.516;13.508;2023-02-15T01:41:50;39.73;;;16.07;;
69822;SDS011;57119;52.516;13.508;2023-02-15T01:47:13;40.95;;;15.15;;
69822;SDS011;57119;52.516;13.508;2023-02-15T01:49:41;41.80;;;15.48;;
69822;SDS011;57119;52.516;13.508;2023-02-15T01:52:10;44.00;;;16.60;;
69822;SDS011;57119;52.516;13.508;2023-02-15T01:54:41;39.78;;;15.32;;
69822;SDS011;57119;52.516;13.508;2023-02-15T01:57:09;40.00;;;15.70;;
69822;SDS011;57119;52.516;13.508;2023-02-15T01:59:39;43.50;;;15.75;;
69822;SDS011;57119;52.516;13.508;2023-02-15T02:02:07;41.72;;;14.88;;
69822;SDS011;57119;52.516;13.508;2023-02-15T02:07:14;43.47;;;15.55;;
69822;SDS011;57119;52.516;13.508;2023-02-15T02:09:42;47.70;;;17.30;;
69822;SDS011;57119;52.516;13.508;2023-02-15T02:12:08;47.88;;;16.45;;
69822;SDS011;57119;52.516;13.508;2023-02-15T02:14:34;48.17;;;16.40;;
69822;SDS011;57119;52.516;13.508;2023-02-15T02:25:02;47.75;;;16.00;;
69822;SDS011;57119;52.516;13.508;2023-02-15T02:27:41;48.85;;;16.70;;
69822;SDS011;57119;52.516;13.508;2023-02-15T02:30:18;53.92;;;17.38;;
69822;SDS011;57119;52.516;13.508;2023-02-15T02:33:04;53.90;;;17.58;;
69822;SDS011;57119;52.516;13.508;2023-02-15T02:35:52;51.83;;;17.35;;
69822;SDS011;57119;52.516;13.508;2023-02-15T02:38:46;52.25;;;17.75;;
69822;SDS011;57119;52.516;13.508;2023-02-15T02:46:54;51.78;;;16.50;;
69822;SDS011;57119;52.516;13.508;2023-02-15T02:49:30;57.53;;;18.60;;
69822;SDS011;57119;52.516;13.508;2023-02-15T02:52:04;56.35;;;18.05;;
69822;SDS011;57119;52.516;13.508;2023-02-15T02:54:51;54.75;;;18.70;;
69822;SDS011;57119;52.516;13.508;2023-02-15T02:57:16;51.95;;;17.83;;
69822;SDS011;57119;52.516;13.508;2023-02-15T02:59:44;53.73;;;17.77;;
69822;SDS011;57119;52.516;13.508;2023-02-15T03:02:13;49.45;;;18.90;;
69822;SDS011;57119;52.516;13.508;2023-02-15T03:04:53;59.38;;;18.48;;
69822;SDS011;57119;52.516;13.508;2023-02-15T03:07:23;56.33;;;17.65;;
69822;SDS011;57119;52.516;13.508;2023-02-15T03:09:53;56.58;;;18.52;;
69822;SDS011;57119;52.516;13.508;2023-02-15T03:12:23;54.57;;;19.53;;
69822;SDS011;57119;52.516;13.508;2023-02-15T03:15:15;54.38;;;17.80;;
69822;SDS011;57119;52.516;13.508;2023-02-15T03:17:44;51.42;;;17.10;;
69822;SDS011;57119;52.516;13.508;2023-02-15T03:20:15;55.08;;;18.67;;
69822;SDS011;57119;52.516;13.508;2023-02-15T03:22:55;67.97;;;18.77;;
69822;SDS011;57119;52.516;13.508;2023-02-15T03:25:30;64.07;;;19.30;;
69822;SDS011;57119;52.516;13.508;2023-02-15T03:27:59;59.95;;;18.83;;
69822;SDS011;57119;52.516;13.508;2023-02-15T03:30:31;67.32;;;20.63;;
69822;SDS011;57119;52.516;13.508;2023-02-15T03:32:59;64.75;;;20.70;;
69822;SDS011;57119;52.516;13.508;2023-02-15T03:35:25;62.13;;;19.35;;
69822;SDS011;57119;52.516;13.508;2023-02-15T03:38:04;53.90;;;18.17;;
69822;SDS011;57119;52.516;13.508;2023-02-15T03:40:37;57.65;;;17.70;;
69822;SDS011;57119;52.516;13.508;2023-02-15T03:43:34;58.90;;;18.48;;
69822;SDS011;57119;52.516;13.508;2023-02-15T03:46:05;58.83;;;18.38;;
69822;SDS011;57119;52.516;13.508;2023-02-15T03:48:46;61.20;;;19.70;;
69822;SDS011;57119;52.516;13.508;2023-02-15T03:51:17;59.43;;;20.03;;
69822;SDS011;57119;52.516;13.508;2023-02-15T03:54:09;61.13;;;19.20;;
69822;SDS011;57119;52.516;13.508;2023-02-15T03:56:39;61.97;;;19.38;;
69822;SDS011;57119;52.516;13.508;2023-02-15T03:59:06;63.33;;;21.52;;
69822;SDS011;57119;52.516;13.508;2023-02-15T04:04:33;63.87;;;19.30;;
69822;SDS011;57119;52.516;13.508;2023-02-15T04:07:01;65.03;;;19.95;;
69822;SDS011;57119;52.516;13.508;2023-02-15T04:09:27;61.80;;;19.80;;
69822;SDS011;57119;52.516;13.508;2023-02-15T04:12:11;62.88;;;19.17;;
69822;SDS011;57119;52.516;13.508;2023-02-15T04:14:36;59.00;;;19.27;;
69822;SDS011;57119;52.516;13.508;2023-02-15T04:17:20;64.47;;;19.17;;
69822;SDS011;57119;52.516;13.508;2023-02-15T04:19:45;65.70;;;21.43;;
69822;SDS011;57119;52.516;13.508;2023-02-15T04:22:29;66.97;;;20.48;;
69822;SDS011;57119;52.516;13.508;2023-02-15T04:25:13;73.88;;;21.90;;
69822;SDS011;57119;52.516;13.508;2023-02-15T04:27:41;69.87;;;20.10;;
69822;SDS011;57119;52.516;13.508;2023-02-15T04:30:09;65.05;;;20.52;;
69822;SDS011;57119;52.516;13.508;2023-02-15T04:32:35;79.63;;;23.40;;
69822;SDS011;57119;52.516;13.508;2023-02-15T04:35:01;68.47;;;21.17;;
69822;SDS011;57119;52.516;13.508;2023-02-15T04:37:27;71.93;;;21.42;;
69822;SDS011;57119;52.516;13.508;2023-02-15T04:39:52;69.30;;;23.10;;
69822;SDS011;57119;52.516;13.508;2023-02-15T04:42:18;73.40;;;21.83;;
69822;SDS011;57119;52.516;13.508;2023-02-15T04:44:43;73.37;;;22.83;;
69822;SDS011;57119;52.516;13.508;2023-02-15T04:47:08;76.30;;;23.10;;
69822;SDS011;57119;52.516;13.508;2023-02-15T04:49:34;61.57;;;19.97;;
69822;SDS011;57119;52.516;13.508;2023-02-15T04:51:59;66.30;;;21.33;;
69822;SDS011;57119;52.516;13.508;2023-02-15T04:54:25;70.80;;;20.40;;
69822;SDS011;57119;52.516;13.508;2023-02-15T04:56:50;70.50;;;21.10;;
69822;SDS011;57119;52.516;13.508;2023-02-15T04:59:15;68.22;;;19.52;;
69822;SDS011;57119;52.516;13.508;2023-02-15T05:01:41;58.28;;;19.52;;
69822;SDS011;57119;52.516;13.508;2023-02-15T05:04:06;59.80;;;19.47;;
69822;SDS011;57119;52.516;13.508;2023-02-15T05:06:32;66.05;;;21.25;;
69822;SDS011;57119;52.516;13.508;2023-02-15T05:08:58;60.83;;;20.23;;
69822;SDS011;57119;52.516;13.508;2023-02-15T05:11:24;61.38;;;19.13;;
69822;SDS011;57119;52.516;13.508;2023-02-15T05:13:50;66.72;;;21.23;;
69822;SDS011;57119;52.516;13.508;2023-02-15T05:16:15;65.80;;;21.25;;
69822;SDS011;57119;52.516;13.508;2023-02-15T05:18:41;77.53;;;21.27;;
69822;SDS011;57119;52.516;13.508;2023-02-15T05:21:06;75.63;;;23.03;;
69822;SDS011;57119;52.516;13.508;2023-02-15T05:23:31;71.80;;;21.00;;
69822;SDS011;57119;52.516;13.508;2023-02-15T05:25:57;69.63;;;20.83;;
69822;SDS011;57119;52.516;13.508;2023-02-15T05:28:41;79.00;;;22.92;;
69822;SDS011;57119;52.516;13.508;2023-02-15T05:33:31;72.00;;;22.37;;
69822;SDS011;57119;52.516;13.508;2023-02-15T05:35:58;83.68;;;24.00;;
69822;SDS011;57119;52.516;13.508;2023-02-15T05:38:23;75.23;;;22.37;;
69822;SDS011;57119;52.516;13.508;2023-02-15T05:40:50;67.25;;;21.58;;
69822;SDS011;57119;52.516;13.508;2023-02-15T05:43:16;83.90;;;23.83;;
69822;SDS011;57119;52.516;13.508;2023-02-15T05:45:44;83.03;;;24.47;;
69822;SDS011;57119;52.516;13.508;2023-02-15T05:48:13;86.47;;;22.90;;
69822;SDS011;57119;52.516;13.508;2023-02-15T05:50:39;80.07;;;24.27;;
69822;SDS011;57119;52.516;13.508;2023-02-15T05:53:04;85.10;;;24.90;;
69822;SDS011;57119;52.516;13.508;2023-02-15T05:55:30;87.53;;;25.23;;
69822;SDS011;57119;52.516;13.508;2023-02-15T05:57:55;88.60;;;26.73;;
69822;SDS011;57119;52.516;13.508;2023-02-15T06:00:20;117.03;;;27.03;;
69822;SDS011;57119;52.516;13.508;2023-02-15T06:02:46;87.10;;;24.98;;
69822;SDS011;57119;52.516;13.508;2023-02-15T06:05:11;107.33;;;26.37;;
69822;SDS011;57119;52.516;13.508;2023-02-15T06:07:37;111.23;;;26.30;;
69822;SDS011;57119;52.516;13.508;2023-02-15T06:10:03;149.37;;;28.10;;
69822;SDS011;57119;52.516;13.508;2023-02-15T06:12:29;127.45;;;27.25;;
69822;SDS011;57119;52.516;13.508;2023-02-15T06:14:54;101.97;;;24.70;;
69822;SDS011;57119;52.516;13.508;2023-02-15T06:17:19;136.50;;;26.23;;
69822;SDS011;57119;52.516;13.508;2023-02-15T06:19:46;123.80;;;25.80;;
69822;SDS011;57119;52.516;13.508;2023-02-15T06:22:12;97.20;;;25.60;;
69822;SDS011;57119;52.516;13.508;2023-02-15T06:24:39;94.78;;;24.15;;
69822;SDS011;57119;52.516;13.508;2023-02-15T06:27:04;115.45;;;25.60;;
69822;SDS011;57119;52.516;13.508;2023-02-15T06:29:29;137.83;;;25.73;;
69822;SDS011;57119;52.516;13.508;2023-02-15T06:31:55;95.33;;;23.33;;
69822;SDS011;57119;52.516;13.508;2023-02-15T06:34:20;96.30;;;22.77;;
69822;SDS011;57119;52.516;13.508;2023-02-15T06:36:45;87.13;;;25.33;;
69822;SDS011;57119;52.516;13.508;2023-02-15T06:39:11;105.53;;;22.17;;
69822;SDS011;57119;52.516;13.508;2023-02-15T06:41:36;105.57;;;21.73;;
69822;SDS011;57119;52.516;13.508;2023-02-15T06:44:02;115.40;;;20.83;;
69822;SDS011;57119;52.516;13.508;2023-02-15T06:46:27;258.27;;;26.70;;
69822;SDS011;57119;52.516;13.508;2023-02-15T06:48:53;218.57;;;27.67;;
69822;SDS011;57119;52.516;13.508;2023-02-15T06:51:18;185.57;;;24.43;;
69822;SDS011;57119;52.516;13.508;2023-02-15T06:53:44;178.33;;;25.17;;
69822;SDS011;57119;52.516;13.508;2023-02-15T06:56:09;122.43;;;22.97;;
69822;SDS011;57119;52.516;13.508;2023-02-15T06:58:35;157.00;;;24.23;;
69822;SDS011;57119;52.516;13.508;2023-02-15T07:01:02;252.57;;;26.55;;
69822;SDS011;57119;52.516;13.508;2023-02-15T07:03:28;194.90;;;25.97;;
69822;SDS011;57119;52.516;13.508;2023-02-15T07:05:55;200.35;;;24.77;;
69822;SDS011;57119;52.516;13.508;2023-02-15T07:08:21;256.45;;;27.52;;
69822;SDS011;57119;52.516;13.508;2023-02-15T07:10:48;130.70;;;24.27;;
69822;SDS011;57119;52.516;13.508;2023-02-15T07:13:14;169.68;;;25.83;;
69822;SDS011;57119;52.516;13.508;2023-02-15T07:15:39;256.08;;;27.50;;
69822;SDS011;57119;52.516;13.508;2023-02-15T07:18:04;206.27;;;25.17;;
69822;SDS011;57119;52.516;13.508;2023-02-15T07:20:30;294.07;;;31.57;;
69822;SDS011;57119;52.516;13.508;2023-02-15T07:22:55;260.97;;;26.17;;
69822;SDS011;57119;52.516;13.508;2023-02-15T07:25:21;218.97;;;25.83;;
69822;SDS011;57119;52.516;13.508;2023-02-15T07:27:46;120.23;;;22.33;;
69822;SDS011;57119;52.516;13.508;2023-02-15T07:30:12;119.07;;;23.40;;
69822;SDS011;57119;52.516;13.508;2023-02-15T07:32:40;270.77;;;29.40;;
69822;SDS011;57119;52.516;13.508;2023-02-15T07:35:26;197.02;;;26.30;;
69822;SDS011;57119;52.516;13.508;2023-02-15T07:37:51;237.53;;;28.47;;
69822;SDS011;57119;52.516;13.508;2023-02-15T07:40:18;214.43;;;27.48;;
69822;SDS011;57119;52.516;13.508;2023-02-15T07:42:43;121.85;;;23.80;;
69822;SDS011;57119;52.516;13.508;2023-02-15T07:45:08;241.77;;;29.05;;
69822;SDS011;57119;52.516;13.508;2023-02-15T07:47:34;188.50;;;25.37;;
69822;SDS011;57119;52.516;13.508;2023-02-15T07:49:59;111.00;;;23.33;;
69822;SDS011;57119;52.516;13.508;2023-02-15T07:52:25;106.90;;;23.07;;
69822;SDS011;57119;52.516;13.508;2023-02-15T07:54:50;167.98;;;25.90;;
69822;SDS011;57119;52.516;13.508;2023-02-15T07:57:16;127.83;;;23.97;;
69822;SDS011;57119;52.516;13.508;2023-02-15T07:59:41;87.63;;;22.80;;
69822;SDS011;57119;52.516;13.508;2023-02-15T08:02:10;130.33;;;24.13;;
69822;SDS011;57119;52.516;13.508;2023-02-15T08:04:35;115.53;;;23.13;;
69822;SDS011;57119;52.516;13.508;2023-02-15T08:07:01;85.70;;;21.57;;
69822;SDS011;57119;52.516;13.508;2023-02-15T08:09:26;85.47;;;22.83;;
69822;SDS011;57119;52.516;13.508;2023-02-15T08:11:51;70.83;;;20.00;;
69822;SDS011;57119;52.516;13.508;2023-02-15T08:14:20;118.20;;;22.90;;
69822;SDS011;57119;52.516;13.508;2023-02-15T08:16:50;102.82;;;21.05;;
69822;SDS011;57119;52.516;13.508;2023-02-15T08:19:27;98.97;;;21.15;;
69822;SDS011;57119;52.516;13.508;2023-02-15T08:24:24;190.68;;;22.65;;
69822;SDS011;57119;52.516;13.508;2023-02-15T08:26:54;179.60;;;23.50;;
69822;SDS011;57119;52.516;13.508;2023-02-15T08:29:21;141.02;;;22.63;;
69822;SDS011;57119;52.516;13.508;2023-02-15T08:31:49;117.63;;;21.40;;
69822;SDS011;57119;52.516;13.508;2023-02-15T08:34:16;197.37;;;26.30;;
69822;SDS011;57119;52.516;13.508;2023-02-15T08:36:43;177.00;;;27.13;;
69822;SDS011;57119;52.516;13.508;2023-02-15T08:39:12;244.75;;;29.20;;
69822;SDS011;57119;52.516;13.508;2023-02-15T08:41:39;160.57;;;25.60;;
69822;SDS011;57119;52.516;13.508;2023-02-15T08:44:07;179.10;;;26.88;;
69822;SDS011;57119;52.516;13.508;2023-02-15T08:46:35;192.60;;;27.33;;
69822;SDS011;57119;52.516;13.508;2023-02-15T08:49:02;105.25;;;23.05;;
69822;SDS011;57119;52.516;13.508;2023-02-15T08:51:29;137.07;;;25.60;;
69822;SDS011;57119;52.516;13.508;2023-02-15T08:53:57;93.25;;;22.88;;
69822;SDS011;57119;52.516;13.508;2023-02-15T08:56:25;100.45;;;22.13;;
69822;SDS011;57119;52.516;13.508;2023-02-15T08:58:52;116.03;;;22.55;;
69822;SDS011;57119;52.516;13.508;2023-02-15T09:01:19;104.00;;;22.85;;
69822;SDS011;57119;52.516;13.508;2023-02-15T09:03:46;96.32;;;23.63;;
69822;SDS011;57119;52.516;13.508;2023-02-15T09:06:14;124.78;;;23.55;;
69822;SDS011;57119;52.516;13.508;2023-02-15T09:08:40;128.23;;;24.88;;
69822;SDS011;57119;52.516;13.508;2023-02-15T09:11:06;91.50;;;22.85;;
69822;SDS011;57119;52.516;13.508;2023-02-15T09:13:33;76.03;;;21.07;;
69822;SDS011;57119;52.516;13.508;2023-02-15T09:16:02;95.40;;;21.75;;
69822;SDS011;57119;52.516;13.508;2023-02-15T09:18:34;65.93;;;22.33;;
69822;SDS011;57119;52.516;13.508;2023-02-15T09:23:58;98.63;;;20.95;;
69822;SDS011;57119;52.516;13.508;2023-02-15T09:26:25;75.05;;;21.38;;
69822;SDS011;57119;52.516;13.508;2023-02-15T09:28:53;66.47;;;19.42;;
69822;SDS011;57119;52.516;13.508;2023-02-15T09:31:22;62.47;;;20.10;;
69822;SDS011;57119;52.516;13.508;2023-02-15T09:33:49;62.83;;;20.47;;
69822;SDS011;57119;52.516;13.508;2023-02-15T09:36:22;63.38;;;20.38;;
69822;SDS011;57119;52.516;13.508;2023-02-15T09:38:59;60.50;;;19.58;;
69822;SDS011;57119;52.516;13.508;2023-02-15T09:46:39;56.40;;;19.03;;
69822;SDS011;57119;52.516;13.508;2023-02-15T09:52:22;61.33;;;19.48;;
69822;SDS011;57119;52.516;13.508;2023-02-15T10:03:25;52.33;;;17.83;;
69822;SDS011;57119;52.516;13.508;2023-02-15T10:25:43;48.35;;;17.25;;
69822;SDS011;57119;52.516;13.508;2023-02-15T10:28:18;47.27;;;17.20;;
69822;SDS011;57119;52.516;13.508;2023-02-15T10:41:38;46.13;;;18.07;;
69822;SDS011;57119;52.516;13.508;2023-02-15T10:44:33;45.42;;;18.63;;
69822;SDS011;57119;52.516;13.508;2023-02-15T10:49:59;37.22;;;15.88;;
69822;SDS011;57119;52.516;13.508;2023-02-15T10:58:11;31.30;;;16.35;;
69822;SDS011;57119;52.516;13.508;2023-02-15T11:01:05;35.05;;;17.60;;
69822;SDS011;57119;52.516;13.508;2023-02-15T11:06:14;35.53;;;19.52;;
69822;SDS011;57119;52.516;13.508;2023-02-15T11:08:44;37.33;;;19.87;;
69822;SDS011;57119;52.516;13.508;2023-02-15T11:11:15;32.53;;;18.48;;
69822;SDS011;57119;52.516;13.508;2023-02-15T11:13:48;35.65;;;19.42;;
69822;SDS011;57119;52.516;13.508;2023-02-15T11:16:20;31.40;;;18.38;;
69822;SDS011;57119;52.516;13.508;2023-02-15T11:18:54;32.70;;;19.98;;
69822;SDS011;57119;52.516;13.508;2023-02-15T11:24:07;34.13;;;19.23;;
69822;SDS011;57119;52.516;13.508;2023-02-15T11:29:28;31.27;;;19.60;;
69822;SDS011;57119;52.516;13.508;2023-02-15T11:32:02;30.02;;;19.00;;
69822;SDS011;57119;52.516;13.508;2023-02-15T11:34:38;28.23;;;18.07;;
69822;SDS011;57119;52.516;13.508;2023-02-15T11:37:11;28.95;;;18.45;;
69822;SDS011;57119;52.516;13.508;2023-02-15T11:39:41;27.50;;;17.02;;
69822;SDS011;57119;52.516;13.508;2023-02-15T11:42:13;28.77;;;18.67;;
69822;SDS011;57119;52.516;13.508;2023-02-15T11:44:43;28.40;;;17.83;;
69822;SDS011;57119;52.516;13.508;2023-02-15T11:47:13;27.73;;;17.70;;
69822;SDS011;57119;52.516;13.508;2023-02-15T11:49:39;25.23;;;16.35;;
69822;SDS011;57119;52.516;13.508;2023-02-15T11:52:05;24.58;;;14.45;;
69822;SDS011;57119;52.516;13.508;2023-02-15T11:54:36;24.73;;;16.53;;
69822;SDS011;57119;52.516;13.508;2023-02-15T11:57:19;23.63;;;14.88;;
69822;SDS011;57119;52.516;13.508;2023-02-15T12:03:01;22.10;;;14.88;;
69822;SDS011;57119;52.516;13.508;2023-02-15T12:05:33;22.20;;;14.85;;
69822;SDS011;57119;52.516;13.508;2023-02-15T12:08:02;23.50;;;15.30;;
69822;SDS011;57119;52.516;13.508;2023-02-15T12:10:34;24.23;;;15.30;;
69822;SDS011;57119;52.516;13.508;2023-02-15T12:13:11;23.20;;;15.57;;
69822;SDS011;57119;52.516;13.508;2023-02-15T12:15:40;25.50;;;17.25;;
69822;SDS011;57119;52.516;13.508;2023-02-15T12:18:19;25.05;;;15.07;;
69822;SDS011;57119;52.516;13.508;2023-02-15T12:20:49;25.90;;;15.37;;
69822;SDS011;57119;52.516;13.508;2023-02-15T12:23:15;24.30;;;15.93;;
69822;SDS011;57119;52.516;13.508;2023-02-15T12:25:43;24.23;;;14.85;;
69822;SDS011;57119;52.516;13.508;2023-02-15T12:31:03;23.47;;;15.97;;
69822;SDS011;57119;52.516;13.508;2023-02-15T12:33:42;24.20;;;16.90;;
69822;SDS011;57119;52.516;13.508;2023-02-15T12:36:29;22.77;;;15.13;;
69822;SDS011;57119;52.516;13.508;2023-02-15T12:39:05;24.00;;;14.07;;
69822;SDS011;57119;52.516;13.508;2023-02-15T12:41:31;26.48;;;17.02;;
69822;SDS011;57119;52.516;13.508;2023-02-15T12:44:04;25.00;;;17.47;;
69822;SDS011;57119;52.516;13.508;2023-02-15T12:46:41;26.83;;;16.58;;
69822;SDS011;57119;52.516;13.508;2023-02-15T12:51:48;25.05;;;16.65;;
69822;SDS011;57119;52.516;13.508;2023-02-15T12:54:28;23.38;;;15.35;;
69822;SDS011;57119;52.516;13.508;2023-02-15T12:57:48;24.23;;;16.70;;
69822;SDS011;57119;52.516;13.508;2023-02-15T13:00:00;24.45;;;16.73;;
69822;SDS011;57119;52.516;13.508;2023-02-15T13:02:30;22.07;;;15.50;;
69822;SDS011;57119;52.516;13.508;2023-02-15T13:05:04;23.95;;;16.90;;
69822;SDS011;57119;52.516;13.508;2023-02-15T13:10:37;25.33;;;15.77;;
69822;SDS011;57119;52.516;13.508;2023-02-15T13:13:09;24.55;;;15.70;;
69822;SDS011;57119;52.516;13.508;2023-02-15T13:15:37;23.57;;;15.83;;
69822;SDS011;57119;52.516;13.508;2023-02-15T13:18:14;23.85;;;17.27;;
69822;SDS011;57119;52.516;13.508;2023-02-15T13:20:43;22.90;;;15.40;;
69822;SDS011;57119;52.516;13.508;2023-02-15T13:23:29;24.83;;;16.15;;
69822;SDS011;57119;52.516;13.508;2023-02-15T13:25:59;20.90;;;14.02;;
69822;SDS011;57119;52.516;13.508;2023-02-15T13:28:37;22.53;;;14.63;;
69822;SDS011;57119;52.516;13.508;2023-02-15T13:31:09;21.02;;;13.82;;
69822;SDS011;57119;52.516;13.508;2023-02-15T13:33:38;23.85;;;15.05;;
69822;SDS011;57119;52.516;13.508;2023-02-15T13:36:09;23.92;;;14.38;;
69822;SDS011;57119;52.516;13.508;2023-02-15T13:39:55;22.00;;;12.48;;
69822;SDS011;57119;52.516;13.508;2023-02-15T13:42:31;21.13;;;13.43;;
69822;SDS011;57119;52.516;13.508;2023-02-15T13:59:17;22.25;;;13.13;;
69822;SDS011;57119;52.516;13.508;2023-02-15T14:01:58;24.55;;;13.68;;
69822;SDS011;57119;52.516;13.508;2023-02-15T14:07:53;23.13;;;13.07;;
69822;SDS011;57119;52.516;13.508;2023-02-15T14:15:49;20.05;;;12.45;;
69822;SDS011;57119;52.516;13.508;2023-02-15T14:31:35;21.35;;;11.55;;
69822;SDS011;57119;52.516;13.508;2023-02-15T14:34:07;21.13;;;10.80;;
69822;SDS011;57119;52.516;13.508;2023-02-15T14:36:50;20.65;;;10.82;;
69822;SDS011;57119;52.516;13.508;2023-02-15T14:42:24;23.27;;;11.15;;
69822;SDS011;57119;52.516;13.508;2023-02-15T14:45:04;25.15;;;11.85;;
69822;SDS011;57119;52.516;13.508;2023-02-15T14:47:41;21.98;;;11.27;;
69822;SDS011;57119;52.516;13.508;2023-02-15T14:50:36;23.00;;;11.93;;
69822;SDS011;57119;52.516;13.508;2023-02-15T14:56:16;22.42;;;11.63;;
69822;SDS011;57119;52.516;13.508;2023-02-15T15:01:17;24.10;;;11.35;;
69822;SDS011;57119;52.516;13.508;2023-02-15T15:04:13;22.10;;;10.77;;
69822;SDS011;57119;52.516;13.508;2023-02-15T15:09:32;21.30;;;10.60;;
69822;SDS011;57119;52.516;13.508;2023-02-15T15:12:35;21.73;;;10.95;;
69822;SDS011;57119;52.516;13.508;2023-02-15T15:14:57;21.20;;;10.98;;
69822;SDS011;57119;52.516;13.508;2023-02-15T15:22:42;20.40;;;11.05;;
69822;SDS011;57119;52.516;13.508;2023-02-15T15:25:09;22.87;;;11.60;;
69822;SDS011;57119;52.516;13.508;2023-02-15T15:27:43;21.83;;;10.25;;
69822;SDS011;57119;52.516;13.508;2023-02-15T15:32:38;20.60;;;9.90;;
69822;SDS011;57119;52.516;13.508;2023-02-15T15:49:48;35.75;;;16.63;;
69822;SDS011;57119;52.516;13.508;2023-02-15T15:52:15;25.50;;;12.47;;
69822;SDS011;57119;52.516;13.508;2023-02-15T15:54:43;23.73;;;10.73;;
69822;SDS011;57119;52.516;13.508;2023-02-15T15:59:45;24.80;;;11.10;;
69822;SDS011;57119;52.516;13.508;2023-02-15T16:02:13;30.10;;;13.48;;
69822;SDS011;57119;52.516;13.508;2023-02-15T16:04:41;21.53;;;9.53;;
69822;SDS011;57119;52.516;13.508;2023-02-15T16:09:41;20.75;;;10.55;;
69822;SDS011;57119;52.516;13.508;2023-02-15T16:12:18;22.00;;;9.95;;
69822;SDS011;57119;52.516;13.508;2023-02-15T16:14:44;20.03;;;9.03;;
69822;SDS011;57119;52.516;13.508;2023-02-15T16:17:36;23.60;;;9.95;;
69822;SDS011;57119;52.516;13.508;2023-02-15T16:20:03;23.95;;;9.80;;
69822;SDS011;57119;52.516;13.508;2023-02-15T16:22:39;22.20;;;9.70;;
69822;SDS011;57119;52.516;13.508;2023-02-15T16:25:15;22.67;;;9.85;;
69822;SDS011;57119;52.516;13.508;2023-02-15T16:27:54;31.87;;;14.17;;
69822;SDS011;57119;52.516;13.508;2023-02-15T16:30:21;24.77;;;9.88;;
69822;SDS011;57119;52.516;13.508;2023-02-15T16:32:46;24.50;;;9.53;;
69822;SDS011;57119;52.516;13.508;2023-02-15T16:35:16;24.83;;;9.73;;
69822;SDS011;57119;52.516;13.508;2023-02-15T16:37:43;21.60;;;9.63;;
69822;SDS011;57119;52.516;13.508;2023-02-15T16:40:25;22.77;;;9.80;;
69822;SDS011;57119;52.516;13.508;2023-02-15T16:42:57;22.08;;;8.30;;
69822;SDS011;57119;52.516;13.508;2023-02-15T16:45:26;19.60;;;9.02;;
69822;SDS011;57119;52.516;13.508;2023-02-15T16:47:55;26.17;;;9.83;;
69822;SDS011;57119;52.516;13.508;2023-02-15T16:50:24;21.77;;;9.25;;
69822;SDS011;57119;52.516;13.508;2023-02-15T16:52:55;23.75;;;9.88;;
69822;SDS011;57119;52.516;13.508;2023-02-15T16:55:22;24.13;;;10.63;;
69822;SDS011;57119;52.516;13.508;2023-02-15T16:57:50;26.02;;;10.45;;
69822;SDS011;57119;52.516;13.508;2023-02-15T17:00:24;25.03;;;9.83;;
69822;SDS011;57119;52.516;13.508;2023-02-15T17:08:05;25.90;;;10.50;;
69822;SDS011;57119;52.516;13.508;2023-02-15T17:10:39;22.05;;;9.55;;
69822;SDS011;57119;52.516;13.508;2023-02-15T17:15:42;27.60;;;11.53;;
69822;SDS011;57119;52.516;13.508;2023-02-15T17:18:43;22.85;;;10.50;;
69822;SDS011;57119;52.516;13.508;2023-02-15T17:21:16;28.20;;;10.65;;
69822;SDS011;57119;52.516;13.508;2023-02-15T17:23:45;27.90;;;11.30;;
69822;SDS011;57119;52.516;13.508;2023-02-15T17:28:45;25.20;;;9.53;;
69822;SDS011;57119;52.516;13.508;2023-02-15T17:31:13;23.88;;;9.93;;
69822;SDS011;57119;52.516;13.508;2023-02-15T17:33:41;25.33;;;9.77;;
69822;SDS011;57119;52.516;13.508;2023-02-15T17:38:37;28.48;;;12.05;;
69822;SDS011;57119;52.516;13.508;2023-02-15T17:41:04;33.88;;;12.07;;